sensor_id;sensor_type;location;lat;lon;timestamp;pressure;altitude;pressure_sealevel;temperature;humidity
77192;BME280;66172;48.526;8.078;2023-04-16T00:01:44;99593.72;;;9.32;83.61
77192;BME280;66172;48.526;8.078;2023-04-16T00:04:10;99591.50;;;9.34;83.07
77192;BME280;66172;48.526;8.078;2023-04-16T00:06:36;99593.09;;;9.35;83.80
77192;BME280;66172;48.526;8.078;2023-04-16T00:09:02;99588.19;;;9.29;83.95
77192;BME280;66172;48.526;8.078;2023-04-16T00:11:28;99588.50;;;9.27;83.86
77192;BME280;66172;48.526;8.078;2023-04-16T00:13:54;99591.53;;;9.26;84.10
77192;BME280;66172;48.526;8.078;2023-04-16T00:16:20;99589.91;;;9.33;84.87
77192;BME280;66172;48.526;8.078;2023-04-16T00:18:46;99600.09;;;9.36;84.58
77192;BME280;66172;48.526;8.078;2023-04-16T00:21:11;99595.31;;;9.42;84.36
77192;BME280;66172;48.526;8.078;2023-04-16T00:23:37;99600.75;;;9.42;84.01
77192;BME280;66172;48.526;8.078;2023-04-16T00:26:03;99597.03;;;9.46;83.88
77192;BME280;66172;48.526;8.078;2023-04-16T00:28:29;99601.69;;;9.46;84.09
77192;BME280;66172;48.526;8.078;2023-04-16T00:30:55;99599.44;;;9.39;83.84
77192;BME280;66172;48.526;8.078;2023-04-16T00:33:23;99600.91;;;9.37;84.00
77192;BME280;66172;48.526;8.078;2023-04-16T00:35:49;99597.09;;;9.38;84.05
77192;BME280;66172;48.526;8.078;2023-04-16T00:38:15;99597.53;;;9.40;83.88
77192;BME280;66172;48.526;8.078;2023-04-16T00:40:41;99596.41;;;9.41;83.67
77192;BME280;66172;48.526;8.078;2023-04-16T00:43:07;99601.06;;;9.40;84.22
77192;BME280;66172;48.526;8.078;2023-04-16T00:45:33;99602.97;;;9.40;84.20
77192;BME280;66172;48.526;8.078;2023-04-16T00:47:59;99606.47;;;9.40;83.97
77192;BME280;66172;48.526;8.078;2023-04-16T00:50:26;99612.25;;;9.39;84.31
77192;BME280;66172;48.526;8.078;2023-04-16T00:52:52;99615.72;;;9.39;84.50
77192;BME280;66172;48.526;8.078;2023-04-16T00:55:18;99610.78;;;9.41;84.28
77192;BME280;66172;48.526;8.078;2023-04-16T00:57:44;99609.03;;;9.45;84.15
77192;BME280;66172;48.526;8.078;2023-04-16T01:00:11;99606.75;;;9.47;84.17
77192;BME280;66172;48.526;8.078;2023-04-16T01:02:37;99616.44;;;9.57;83.47
77192;BME280;66172;48.526;8.078;2023-04-16T01:05:04;99607.03;;;9.54;84.05
77192;BME280;66172;48.526;8.078;2023-04-16T01:07:30;99610.56;;;9.55;83.35
77192;BME280;66172;48.526;8.078;2023-04-16T01:09:56;99608.38;;;9.48;83.66
77192;BME280;66172;48.526;8.078;2023-04-16T01:12:22;99617.75;;;9.51;83.62
77192;BME280;66172;48.526;8.078;2023-04-16T01:14:48;99612.19;;;9.47;83.73
77192;BME280;66172;48.526;8.078;2023-04-16T01:17:14;99613.31;;;9.46;84.28
77192;BME280;66172;48.526;8.078;2023-04-16T01:19:41;99609.81;;;9.46;84.03
77192;BME280;66172;48.526;8.078;2023-04-16T01:22:07;99614.09;;;9.47;84.05
77192;BME280;66172;48.526;8.078;2023-04-16T01:24:33;99621.59;;;9.50;83.50
77192;BME280;66172;48.526;8.078;2023-04-16T01:26:59;99625.81;;;9.39;84.02
77192;BME280;66172;48.526;8.078;2023-04-16T01:29:25;99618.28;;;9.44;84.15
77192;BME280;66172;48.526;8.078;2023-04-16T01:31:51;99624.66;;;9.48;84.14
77192;BME280;66172;48.526;8.078;2023-04-16T01:34:17;99622.75;;;9.49;84.33
77192;BME280;66172;48.526;8.078;2023-04-16T01:36:43;99624.00;;;9.51;84.13
77192;BME280;66172;48.526;8.078;2023-04-16T01:39:09;99631.47;;;9.54;83.72
77192;BME280;66172;48.526;8.078;2023-04-16T01:41:38;99621.25;;;9.60;82.44
77192;BME280;66172;48.526;8.078;2023-04-16T01:44:04;99622.69;;;9.58;82.97
77192;BME280;66172;48.526;8.078;2023-04-16T01:46:32;99624.59;;;9.57;82.80
77192;BME280;66172;48.526;8.078;2023-04-16T01:49:00;99625.38;;;9.66;81.62
77192;BME280;66172;48.526;8.078;2023-04-16T01:51:26;99626.97;;;9.67;81.51
77192;BME280;66172;48.526;8.078;2023-04-16T01:53:53;99622.16;;;9.64;81.37
77192;BME280;66172;48.526;8.078;2023-04-16T01:56:19;99630.50;;;9.59;81.86
77192;BME280;66172;48.526;8.078;2023-04-16T01:58:45;99632.41;;;9.59;82.57
77192;BME280;66172;48.526;8.078;2023-04-16T02:01:12;99628.75;;;9.54;82.84
77192;BME280;66172;48.526;8.078;2023-04-16T02:03:38;99629.41;;;9.51;82.52
77192;BME280;66172;48.526;8.078;2023-04-16T02:06:04;99633.53;;;9.58;81.86
77192;BME280;66172;48.526;8.078;2023-04-16T02:08:30;99633.06;;;9.56;82.90
77192;BME280;66172;48.526;8.078;2023-04-16T02:10:57;99642.69;;;9.53;82.91
77192;BME280;66172;48.526;8.078;2023-04-16T02:13:23;99641.38;;;9.50;83.16
77192;BME280;66172;48.526;8.078;2023-04-16T02:15:51;99640.72;;;9.53;83.33
77192;BME280;66172;48.526;8.078;2023-04-16T02:18:17;99645.41;;;9.44;83.20
77192;BME280;66172;48.526;8.078;2023-04-16T02:20:45;99642.56;;;9.41;83.57
77192;BME280;66172;48.526;8.078;2023-04-16T02:23:11;99644.97;;;9.42;83.63
77192;BME280;66172;48.526;8.078;2023-04-16T02:25:48;99645.88;;;9.46;83.92
77192;BME280;66172;48.526;8.078;2023-04-16T02:28:15;99640.44;;;9.46;84.32
77192;BME280;66172;48.526;8.078;2023-04-16T02:30:42;99641.09;;;9.52;82.72
77192;BME280;66172;48.526;8.078;2023-04-16T02:33:10;99638.69;;;9.50;84.00
77192;BME280;66172;48.526;8.078;2023-04-16T02:35:37;99651.31;;;9.46;83.73
77192;BME280;66172;48.526;8.078;2023-04-16T02:38:04;99643.81;;;9.43;84.18
77192;BME280;66172;48.526;8.078;2023-04-16T02:40:30;99645.72;;;9.43;83.06
77192;BME280;66172;48.526;8.078;2023-04-16T02:42:56;99652.44;;;9.45;81.79
77192;BME280;66172;48.526;8.078;2023-04-16T02:45:22;99652.91;;;9.47;82.27
77192;BME280;66172;48.526;8.078;2023-04-16T02:47:49;99648.59;;;9.46;82.69
77192;BME280;66172;48.526;8.078;2023-04-16T02:50:16;99652.25;;;9.50;81.88
77192;BME280;66172;48.526;8.078;2023-04-16T02:52:42;99648.88;;;9.53;81.26
77192;BME280;66172;48.526;8.078;2023-04-16T02:55:08;99652.75;;;9.52;81.54
77192;BME280;66172;48.526;8.078;2023-04-16T02:57:34;99653.84;;;9.51;81.20
77192;BME280;66172;48.526;8.078;2023-04-16T03:00:00;99652.91;;;9.47;82.40
77192;BME280;66172;48.526;8.078;2023-04-16T03:02:26;99651.44;;;9.50;81.92
77192;BME280;66172;48.526;8.078;2023-04-16T03:04:52;99651.78;;;9.48;81.91
77192;BME280;66172;48.526;8.078;2023-04-16T03:07:18;99651.00;;;9.48;81.79
77192;BME280;66172;48.526;8.078;2023-04-16T03:09:44;99657.72;;;9.42;82.65
77192;BME280;66172;48.526;8.078;2023-04-16T03:12:10;99659.50;;;9.38;83.80
77192;BME280;66172;48.526;8.078;2023-04-16T03:14:36;99650.72;;;9.32;83.08
77192;BME280;66172;48.526;8.078;2023-04-16T03:17:02;99655.84;;;9.34;82.96
77192;BME280;66172;48.526;8.078;2023-04-16T03:19:28;99655.97;;;9.37;82.82
77192;BME280;66172;48.526;8.078;2023-04-16T03:21:54;99658.25;;;9.35;83.16
77192;BME280;66172;48.526;8.078;2023-04-16T03:24:20;99645.28;;;9.41;82.52
77192;BME280;66172;48.526;8.078;2023-04-16T03:26:46;99655.81;;;9.42;82.54
77192;BME280;66172;48.526;8.078;2023-04-16T03:29:12;99660.44;;;9.42;82.10
77192;BME280;66172;48.526;8.078;2023-04-16T03:31:38;99653.56;;;9.44;82.72
77192;BME280;66172;48.526;8.078;2023-04-16T03:34:03;99660.09;;;9.43;82.07
77192;BME280;66172;48.526;8.078;2023-04-16T03:36:29;99658.53;;;9.42;82.42
77192;BME280;66172;48.526;8.078;2023-04-16T03:38:56;99660.75;;;9.40;83.67
77192;BME280;66172;48.526;8.078;2023-04-16T03:41:21;99657.59;;;9.38;84.42
77192;BME280;66172;48.526;8.078;2023-04-16T03:43:47;99658.69;;;9.37;83.57
77192;BME280;66172;48.526;8.078;2023-04-16T03:46:13;99660.44;;;9.42;82.65
77192;BME280;66172;48.526;8.078;2023-04-16T03:48:39;99653.09;;;9.42;81.90
77192;BME280;66172;48.526;8.078;2023-04-16T03:51:05;99655.16;;;9.45;81.51
77192;BME280;66172;48.526;8.078;2023-04-16T03:53:31;99659.16;;;9.39;82.68
77192;BME280;66172;48.526;8.078;2023-04-16T03:55:57;99656.28;;;9.36;83.21
77192;BME280;66172;48.526;8.078;2023-04-16T03:58:22;99659.81;;;9.36;83.70
77192;BME280;66172;48.526;8.078;2023-04-16T04:00:48;99651.53;;;9.33;83.25
77192;BME280;66172;48.526;8.078;2023-04-16T04:03:16;99659.50;;;9.29;83.50
77192;BME280;66172;48.526;8.078;2023-04-16T04:05:43;99663.38;;;9.28;83.38
77192;BME280;66172;48.526;8.078;2023-04-16T04:08:09;99654.09;;;9.29;84.01
77192;BME280;66172;48.526;8.078;2023-04-16T04:10:35;99663.53;;;9.32;84.00
77192;BME280;66172;48.526;8.078;2023-04-16T04:13:03;99660.97;;;9.27;84.35
77192;BME280;66172;48.526;8.078;2023-04-16T04:15:29;99668.00;;;9.28;83.71
77192;BME280;66172;48.526;8.078;2023-04-16T04:17:55;99665.88;;;9.33;83.27
77192;BME280;66172;48.526;8.078;2023-04-16T04:20:21;99663.47;;;9.40;82.91
77192;BME280;66172;48.526;8.078;2023-04-16T04:22:48;99669.69;;;9.41;82.78
77192;BME280;66172;48.526;8.078;2023-04-16T04:25:15;99671.16;;;9.38;83.05
77192;BME280;66172;48.526;8.078;2023-04-16T04:27:42;99676.09;;;9.36;82.60
77192;BME280;66172;48.526;8.078;2023-04-16T04:30:08;99671.31;;;9.33;82.79
77192;BME280;66172;48.526;8.078;2023-04-16T04:32:34;99672.13;;;9.34;83.53
77192;BME280;66172;48.526;8.078;2023-04-16T04:35:01;99681.06;;;9.34;83.95
77192;BME280;66172;48.526;8.078;2023-04-16T04:37:27;99682.00;;;9.38;84.27
77192;BME280;66172;48.526;8.078;2023-04-16T04:39:53;99678.34;;;9.34;83.96
77192;BME280;66172;48.526;8.078;2023-04-16T04:42:19;99688.41;;;9.34;83.91
77192;BME280;66172;48.526;8.078;2023-04-16T04:44:46;99683.63;;;9.31;83.42
77192;BME280;66172;48.526;8.078;2023-04-16T04:47:12;99691.44;;;9.32;82.90
77192;BME280;66172;48.526;8.078;2023-04-16T04:49:38;99684.56;;;9.35;83.24
77192;BME280;66172;48.526;8.078;2023-04-16T04:52:04;99692.72;;;9.26;83.64
77192;BME280;66172;48.526;8.078;2023-04-16T04:54:31;99699.31;;;9.17;83.57
77192;BME280;66172;48.526;8.078;2023-04-16T04:56:57;99703.78;;;9.13;83.88
77192;BME280;66172;48.526;8.078;2023-04-16T04:59:23;99697.69;;;9.24;83.97
77192;BME280;66172;48.526;8.078;2023-04-16T05:01:49;99702.81;;;9.17;84.32
77192;BME280;66172;48.526;8.078;2023-04-16T05:04:16;99699.47;;;9.12;84.93
77192;BME280;66172;48.526;8.078;2023-04-16T05:06:42;99699.16;;;9.13;85.06
77192;BME280;66172;48.526;8.078;2023-04-16T05:09:09;99702.63;;;9.22;83.86
77192;BME280;66172;48.526;8.078;2023-04-16T05:11:40;99702.47;;;9.27;83.50
77192;BME280;66172;48.526;8.078;2023-04-16T05:14:06;99705.66;;;9.29;83.60
77192;BME280;66172;48.526;8.078;2023-04-16T05:16:35;99717.16;;;9.26;83.90
77192;BME280;66172;48.526;8.078;2023-04-16T05:19:01;99709.50;;;9.20;84.66
77192;BME280;66172;48.526;8.078;2023-04-16T05:21:27;99720.84;;;9.22;84.11
77192;BME280;66172;48.526;8.078;2023-04-16T05:23:53;99716.22;;;9.14;84.18
77192;BME280;66172;48.526;8.078;2023-04-16T05:26:19;99717.97;;;9.10;84.44
77192;BME280;66172;48.526;8.078;2023-04-16T05:28:45;99722.16;;;9.07;84.64
77192;BME280;66172;48.526;8.078;2023-04-16T05:31:11;99724.06;;;9.07;85.02
77192;BME280;66172;48.526;8.078;2023-04-16T05:33:37;99734.72;;;9.12;84.79
77192;BME280;66172;48.526;8.078;2023-04-16T05:36:03;99730.91;;;9.13;85.01
77192;BME280;66172;48.526;8.078;2023-04-16T05:38:29;99728.19;;;9.13;85.72
77192;BME280;66172;48.526;8.078;2023-04-16T05:40:57;99744.16;;;9.14;85.81
77192;BME280;66172;48.526;8.078;2023-04-16T05:43:23;99742.41;;;9.18;85.29
77192;BME280;66172;48.526;8.078;2023-04-16T05:45:49;99746.22;;;9.17;85.72
77192;BME280;66172;48.526;8.078;2023-04-16T05:48:15;99748.59;;;9.19;85.98
77192;BME280;66172;48.526;8.078;2023-04-16T05:50:41;99752.44;;;9.18;85.51
77192;BME280;66172;48.526;8.078;2023-04-16T05:53:08;99755.16;;;9.18;85.50
77192;BME280;66172;48.526;8.078;2023-04-16T05:55:34;99755.66;;;9.11;84.88
77192;BME280;66172;48.526;8.078;2023-04-16T05:58:01;99759.78;;;9.09;85.73
77192;BME280;66172;48.526;8.078;2023-04-16T06:00:31;99752.94;;;9.02;85.67
77192;BME280;66172;48.526;8.078;2023-04-16T06:02:57;99761.22;;;9.06;85.93
77192;BME280;66172;48.526;8.078;2023-04-16T06:05:26;99770.81;;;9.03;85.75
77192;BME280;66172;48.526;8.078;2023-04-16T06:07:52;99766.19;;;9.04;86.04
77192;BME280;66172;48.526;8.078;2023-04-16T06:10:18;99770.81;;;9.03;86.45
77192;BME280;66172;48.526;8.078;2023-04-16T06:12:44;99770.16;;;9.07;86.53
77192;BME280;66172;48.526;8.078;2023-04-16T06:15:10;99776.41;;;9.07;85.88
77192;BME280;66172;48.526;8.078;2023-04-16T06:17:36;99767.91;;;9.09;86.26
77192;BME280;66172;48.526;8.078;2023-04-16T06:20:02;99765.88;;;8.97;86.26
77192;BME280;66172;48.526;8.078;2023-04-16T06:22:28;99773.03;;;9.01;85.93
77192;BME280;66172;48.526;8.078;2023-04-16T06:24:54;99770.81;;;9.03;86.37
77192;BME280;66172;48.526;8.078;2023-04-16T06:27:20;99774.47;;;8.99;86.38
77192;BME280;66172;48.526;8.078;2023-04-16T06:29:46;99779.09;;;8.98;86.33
77192;BME280;66172;48.526;8.078;2023-04-16T06:32:12;99779.25;;;9.02;86.44
77192;BME280;66172;48.526;8.078;2023-04-16T06:34:37;99786.41;;;9.15;85.30
77192;BME280;66172;48.526;8.078;2023-04-16T06:37:04;99785.00;;;9.09;85.55
77192;BME280;66172;48.526;8.078;2023-04-16T06:39:29;99792.50;;;9.03;86.52
77192;BME280;66172;48.526;8.078;2023-04-16T06:41:55;99788.03;;;8.99;86.51
77192;BME280;66172;48.526;8.078;2023-04-16T06:44:21;99792.03;;;8.93;86.60
77192;BME280;66172;48.526;8.078;2023-04-16T06:46:47;99791.72;;;8.86;87.05
77192;BME280;66172;48.526;8.078;2023-04-16T06:49:13;99801.09;;;8.71;87.58
77192;BME280;66172;48.526;8.078;2023-04-16T06:51:40;99802.38;;;8.74;87.86
77192;BME280;66172;48.526;8.078;2023-04-16T06:54:06;99802.53;;;8.77;87.42
77192;BME280;66172;48.526;8.078;2023-04-16T06:56:32;99795.84;;;8.75;88.01
77192;BME280;66172;48.526;8.078;2023-04-16T06:58:58;99807.50;;;8.75;88.33
77192;BME280;66172;48.526;8.078;2023-04-16T07:01:25;99804.78;;;8.84;88.17
77192;BME280;66172;48.526;8.078;2023-04-16T07:03:52;99809.88;;;8.85;88.27
77192;BME280;66172;48.526;8.078;2023-04-16T07:06:18;99814.84;;;8.92;87.70
77192;BME280;66172;48.526;8.078;2023-04-16T07:08:44;99809.44;;;9.00;87.42
77192;BME280;66172;48.526;8.078;2023-04-16T07:11:10;99810.19;;;9.01;87.03
77192;BME280;66172;48.526;8.078;2023-04-16T07:13:36;99804.16;;;9.13;86.98
77192;BME280;66172;48.526;8.078;2023-04-16T07:16:02;99808.63;;;9.09;86.91
77192;BME280;66172;48.526;8.078;2023-04-16T07:18:27;99807.50;;;9.18;85.79
77192;BME280;66172;48.526;8.078;2023-04-16T07:20:53;99808.63;;;9.17;86.54
77192;BME280;66172;48.526;8.078;2023-04-16T07:23:19;99811.81;;;9.19;86.30
77192;BME280;66172;48.526;8.078;2023-04-16T07:25:45;99810.06;;;9.15;86.62
77192;BME280;66172;48.526;8.078;2023-04-16T07:28:11;99820.25;;;9.26;85.39
77192;BME280;66172;48.526;8.078;2023-04-16T07:30:37;99808.28;;;9.27;85.93
77192;BME280;66172;48.526;8.078;2023-04-16T07:33:03;99816.25;;;9.15;86.50
77192;BME280;66172;48.526;8.078;2023-04-16T07:35:30;99815.00;;;9.21;85.96
77192;BME280;66172;48.526;8.078;2023-04-16T07:37:56;99815.81;;;9.22;86.01
77192;BME280;66172;48.526;8.078;2023-04-16T07:40:22;99812.13;;;9.26;85.81
77192;BME280;66172;48.526;8.078;2023-04-16T07:42:49;99817.22;;;9.19;86.13
77192;BME280;66172;48.526;8.078;2023-04-16T07:45:16;99819.28;;;9.22;85.32
77192;BME280;66172;48.526;8.078;2023-04-16T07:47:42;99819.00;;;9.24;86.02
77192;BME280;66172;48.526;8.078;2023-04-16T07:50:08;99824.41;;;9.32;85.29
77192;BME280;66172;48.526;8.078;2023-04-16T07:52:34;99831.59;;;9.28;85.06
77192;BME280;66172;48.526;8.078;2023-04-16T07:55:00;99822.34;;;9.21;85.58
77192;BME280;66172;48.526;8.078;2023-04-16T07:57:26;99834.28;;;9.37;85.31
77192;BME280;66172;48.526;8.078;2023-04-16T07:59:52;99826.31;;;9.40;83.80
77192;BME280;66172;48.526;8.078;2023-04-16T08:02:18;99833.81;;;9.43;83.33
77192;BME280;66172;48.526;8.078;2023-04-16T08:04:44;99833.34;;;9.41;83.31
77192;BME280;66172;48.526;8.078;2023-04-16T08:07:09;99842.75;;;9.44;82.65
77192;BME280;66172;48.526;8.078;2023-04-16T08:09:35;99837.66;;;9.34;83.59
77192;BME280;66172;48.526;8.078;2023-04-16T08:12:02;99839.41;;;9.30;83.60
77192;BME280;66172;48.526;8.078;2023-04-16T08:14:28;99842.13;;;9.30;84.22
77192;BME280;66172;48.526;8.078;2023-04-16T08:16:54;99851.41;;;9.29;84.41
77192;BME280;66172;48.526;8.078;2023-04-16T08:19:20;99856.84;;;9.29;84.31
77192;BME280;66172;48.526;8.078;2023-04-16T08:21:45;99860.31;;;9.29;84.05
77192;BME280;66172;48.526;8.078;2023-04-16T08:24:11;99864.16;;;9.28;84.71
77192;BME280;66172;48.526;8.078;2023-04-16T08:26:37;99873.25;;;9.32;84.45
77192;BME280;66172;48.526;8.078;2023-04-16T08:29:03;99872.94;;;9.34;85.21
77192;BME280;66172;48.526;8.078;2023-04-16T08:31:29;99871.50;;;9.45;83.84
77192;BME280;66172;48.526;8.078;2023-04-16T08:33:55;99875.03;;;9.45;84.25
77192;BME280;66172;48.526;8.078;2023-04-16T08:36:21;99886.50;;;9.51;84.14
77192;BME280;66172;48.526;8.078;2023-04-16T08:38:47;99880.59;;;9.58;84.20
77192;BME280;66172;48.526;8.078;2023-04-16T08:41:13;99881.38;;;9.67;84.14
77192;BME280;66172;48.526;8.078;2023-04-16T08:43:43;99891.09;;;9.68;83.31
77192;BME280;66172;48.526;8.078;2023-04-16T08:46:10;99887.16;;;9.57;83.15
77192;BME280;66172;48.526;8.078;2023-04-16T08:48:37;99885.38;;;9.61;83.20
77192;BME280;66172;48.526;8.078;2023-04-16T08:51:06;99897.22;;;9.56;83.86
77192;BME280;66172;48.526;8.078;2023-04-16T08:53:47;99896.41;;;9.56;83.58
77192;BME280;66172;48.526;8.078;2023-04-16T08:56:14;99898.63;;;9.53;83.77
77192;BME280;66172;48.526;8.078;2023-04-16T08:58:42;99904.69;;;9.50;84.00
77192;BME280;66172;48.526;8.078;2023-04-16T09:01:08;99904.22;;;9.57;84.01
77192;BME280;66172;48.526;8.078;2023-04-16T09:03:36;99906.13;;;9.65;84.30
77192;BME280;66172;48.526;8.078;2023-04-16T09:06:03;99898.47;;;9.76;83.60
77192;BME280;66172;48.526;8.078;2023-04-16T09:08:29;99897.81;;;9.79;83.82
77192;BME280;66172;48.526;8.078;2023-04-16T09:10:55;99902.75;;;9.85;83.74
77192;BME280;66172;48.526;8.078;2023-04-16T09:13:21;99906.56;;;9.93;83.67
77192;BME280;66172;48.526;8.078;2023-04-16T09:15:52;99910.75;;;9.99;83.72
77192;BME280;66172;48.526;8.078;2023-04-16T09:18:18;99910.91;;;9.94;83.27
77192;BME280;66172;48.526;8.078;2023-04-16T09:20:45;99902.59;;;9.99;83.34
77192;BME280;66172;48.526;8.078;2023-04-16T09:23:11;99900.97;;;10.15;83.00
77192;BME280;66172;48.526;8.078;2023-04-16T09:25:37;99904.94;;;10.18;82.82
77192;BME280;66172;48.526;8.078;2023-04-16T09:28:04;99907.31;;;10.28;82.92
77192;BME280;66172;48.526;8.078;2023-04-16T09:30:30;99909.66;;;10.46;81.61
77192;BME280;66172;48.526;8.078;2023-04-16T09:33:19;99908.06;;;10.45;80.49
77192;BME280;66172;48.526;8.078;2023-04-16T09:35:49;99911.03;;;10.61;80.07
77192;BME280;66172;48.526;8.078;2023-04-16T09:38:16;99915.31;;;10.71;80.01
77192;BME280;66172;48.526;8.078;2023-04-16T09:40:42;99912.41;;;10.76;79.81
77192;BME280;66172;48.526;8.078;2023-04-16T09:43:14;99919.56;;;10.80;79.83
77192;BME280;66172;48.526;8.078;2023-04-16T09:45:51;99914.84;;;10.69;79.21
77192;BME280;66172;48.526;8.078;2023-04-16T09:48:37;99918.69;;;10.68;78.62
77192;BME280;66172;48.526;8.078;2023-04-16T09:51:05;99923.56;;;10.83;78.18
77192;BME280;66172;48.526;8.078;2023-04-16T09:53:31;99921.28;;;10.93;78.06
77192;BME280;66172;48.526;8.078;2023-04-16T09:55:58;99919.25;;;11.11;77.41
77192;BME280;66172;48.526;8.078;2023-04-16T09:58:25;99922.44;;;11.13;76.43
77192;BME280;66172;48.526;8.078;2023-04-16T10:01:00;99923.31;;;11.26;77.01
77192;BME280;66172;48.526;8.078;2023-04-16T10:03:30;99934.97;;;11.26;75.16
77192;BME280;66172;48.526;8.078;2023-04-16T10:06:17;99935.19;;;11.42;75.34
77192;BME280;66172;48.526;8.078;2023-04-16T10:08:51;99933.28;;;11.42;74.29
77192;BME280;66172;48.526;8.078;2023-04-16T10:11:18;99935.53;;;11.40;74.50
77192;BME280;66172;48.526;8.078;2023-04-16T10:13:45;99939.44;;;11.31;74.81
77192;BME280;66172;48.526;8.078;2023-04-16T10:16:11;99934.00;;;11.31;74.38
77192;BME280;66172;48.526;8.078;2023-04-16T10:18:41;99933.59;;;11.41;74.39
77192;BME280;66172;48.526;8.078;2023-04-16T10:21:08;99938.88;;;11.46;74.46
77192;BME280;66172;48.526;8.078;2023-04-16T10:23:37;99936.13;;;11.46;74.79
77192;BME280;66172;48.526;8.078;2023-04-16T10:26:04;99941.06;;;11.52;75.25
77192;BME280;66172;48.526;8.078;2023-04-16T10:28:31;99941.50;;;11.54;75.07
77192;BME280;66172;48.526;8.078;2023-04-16T10:31:01;99948.97;;;11.45;73.41
77192;BME280;66172;48.526;8.078;2023-04-16T10:33:30;99939.31;;;11.48;73.91
77192;BME280;66172;48.526;8.078;2023-04-16T10:36:10;99933.16;;;11.60;72.20
77192;BME280;66172;48.526;8.078;2023-04-16T10:38:46;99940.91;;;11.70;72.32
77192;BME280;66172;48.526;8.078;2023-04-16T10:41:14;99941.91;;;11.65;73.76
77192;BME280;66172;48.526;8.078;2023-04-16T10:43:42;99945.06;;;11.76;72.86
77192;BME280;66172;48.526;8.078;2023-04-16T10:46:33;99944.06;;;11.80;71.83
77192;BME280;66172;48.526;8.078;2023-04-16T10:49:01;99941.41;;;11.92;71.29
77192;BME280;66172;48.526;8.078;2023-04-16T10:51:34;99945.16;;;12.00;71.51
77192;BME280;66172;48.526;8.078;2023-04-16T10:56:39;99942.66;;;11.95;69.91
77192;BME280;66172;48.526;8.078;2023-04-16T10:59:06;99942.78;;;11.98;70.30
77192;BME280;66172;48.526;8.078;2023-04-16T11:01:36;99949.88;;;11.91;72.16
77192;BME280;66172;48.526;8.078;2023-04-16T11:07:04;99939.19;;;11.86;72.63
77192;BME280;66172;48.526;8.078;2023-04-16T11:12:39;99940.53;;;11.80;71.42
77192;BME280;66172;48.526;8.078;2023-04-16T11:15:07;99943.47;;;11.75;71.54
77192;BME280;66172;48.526;8.078;2023-04-16T11:17:45;99940.06;;;11.78;72.39
77192;BME280;66172;48.526;8.078;2023-04-16T11:22:41;99946.84;;;11.72;72.28
77192;BME280;66172;48.526;8.078;2023-04-16T11:25:08;99942.69;;;11.66;72.84
77192;BME280;66172;48.526;8.078;2023-04-16T11:27:34;99945.28;;;11.62;72.11
77192;BME280;66172;48.526;8.078;2023-04-16T11:30:01;99943.69;;;11.61;72.83
77192;BME280;66172;48.526;8.078;2023-04-16T11:32:36;99947.44;;;11.57;72.79
77192;BME280;66172;48.526;8.078;2023-04-16T11:35:12;99940.84;;;11.58;72.56
77192;BME280;66172;48.526;8.078;2023-04-16T11:37:38;99940.38;;;11.56;72.66
77192;BME280;66172;48.526;8.078;2023-04-16T11:40:05;99940.56;;;11.50;72.61
77192;BME280;66172;48.526;8.078;2023-04-16T11:42:32;99943.97;;;11.47;73.12
77192;BME280;66172;48.526;8.078;2023-04-16T11:44:59;99959.50;;;11.47;73.38
77192;BME280;66172;48.526;8.078;2023-04-16T11:47:29;99946.16;;;11.54;72.78
77192;BME280;66172;48.526;8.078;2023-04-16T11:50:14;99943.38;;;11.63;72.51
77192;BME280;66172;48.526;8.078;2023-04-16T11:52:40;99950.72;;;11.71;72.49
77192;BME280;66172;48.526;8.078;2023-04-16T11:55:06;99949.81;;;11.79;73.46
77192;BME280;66172;48.526;8.078;2023-04-16T11:57:32;99944.84;;;11.81;72.57
77192;BME280;66172;48.526;8.078;2023-04-16T11:59:58;99947.50;;;11.89;72.42
77192;BME280;66172;48.526;8.078;2023-04-16T12:02:40;99942.72;;;11.86;72.35
77192;BME280;66172;48.526;8.078;2023-04-16T12:07:54;99951.69;;;11.87;72.38
77192;BME280;66172;48.526;8.078;2023-04-16T12:10:20;99949.97;;;11.82;72.56
77192;BME280;66172;48.526;8.078;2023-04-16T12:12:46;99959.47;;;11.76;71.81
77192;BME280;66172;48.526;8.078;2023-04-16T12:15:11;99961.06;;;11.77;72.30
77192;BME280;66172;48.526;8.078;2023-04-16T12:17:38;99957.22;;;11.78;72.89
77192;BME280;66172;48.526;8.078;2023-04-16T12:20:11;99957.41;;;11.73;72.32
77192;BME280;66172;48.526;8.078;2023-04-16T12:22:45;99963.81;;;11.77;72.11
77192;BME280;66172;48.526;8.078;2023-04-16T12:25:16;99955.16;;;11.75;72.21
77192;BME280;66172;48.526;8.078;2023-04-16T12:27:49;99959.81;;;11.75;72.90
77192;BME280;66172;48.526;8.078;2023-04-16T12:30:19;99953.44;;;11.71;72.64
77192;BME280;66172;48.526;8.078;2023-04-16T12:33:02;99962.91;;;11.65;73.53
77192;BME280;66172;48.526;8.078;2023-04-16T12:35:36;99958.25;;;11.65;72.94
77192;BME280;66172;48.526;8.078;2023-04-16T12:38:02;99961.44;;;11.67;73.92
77192;BME280;66172;48.526;8.078;2023-04-16T12:40:28;99966.41;;;11.65;73.27
77192;BME280;66172;48.526;8.078;2023-04-16T12:42:54;99964.72;;;11.61;72.78
77192;BME280;66172;48.526;8.078;2023-04-16T12:45:20;99969.75;;;11.50;73.47
77192;BME280;66172;48.526;8.078;2023-04-16T12:47:49;99969.28;;;11.48;74.10
77192;BME280;66172;48.526;8.078;2023-04-16T12:50:18;99976.50;;;11.44;74.52
77192;BME280;66172;48.526;8.078;2023-04-16T12:52:45;99966.09;;;11.46;75.55
77192;BME280;66172;48.526;8.078;2023-04-16T12:55:13;99974.72;;;11.48;74.69
77192;BME280;66172;48.526;8.078;2023-04-16T12:57:39;99977.44;;;11.48;74.87
77192;BME280;66172;48.526;8.078;2023-04-16T13:00:06;99969.81;;;11.41;75.15
77192;BME280;66172;48.526;8.078;2023-04-16T13:02:35;99976.38;;;11.40;74.92
77192;BME280;66172;48.526;8.078;2023-04-16T13:05:01;99974.97;;;11.34;75.05
77192;BME280;66172;48.526;8.078;2023-04-16T13:07:28;99971.09;;;11.15;75.89
77192;BME280;66172;48.526;8.078;2023-04-16T13:09:56;99977.22;;;11.12;75.83
77192;BME280;66172;48.526;8.078;2023-04-16T13:12:22;99968.56;;;11.10;76.07
77192;BME280;66172;48.526;8.078;2023-04-16T13:14:48;99975.34;;;10.95;76.74
77192;BME280;66172;48.526;8.078;2023-04-16T13:17:14;99979.69;;;10.96;77.14
77192;BME280;66172;48.526;8.078;2023-04-16T13:19:40;99975.56;;;10.90;76.83
77192;BME280;66172;48.526;8.078;2023-04-16T13:22:06;99977.47;;;10.89;77.45